Terminal Aerodrome Forecast
Issued by NWS Jackson, KY

Home | Current Version | Previous Version | Text Only | Print | Product List | Glossary On
Versions: 1 2 3 4 5 6 7 8 9 10 11 12 13 14 15 16 17 18 19
000
FTUS43 KJKL 280419 AAC
TAFJKL
TAF AMD
KJKL 280419Z 2804/2824 VRB03KT P6SM SCT003 BKN100
     FM281200 VRB03KT P6SM SCT050
     FM282000 VRB03KT P6SM VCTS BKN050CB=

USA.gov is the U.S. government's official web portal to all federal, state and local government web resources and services.